CheckWX is a tool to help pilots better visualize weather data.  It is not intended as a substitute for an official pre-flight weather briefing.

14:10:41 UTC

24J METAR
Suwannee County Airport
Live Oak, Florida, USA
Current

16 mins ago

K24J 261355Z AUTO VRB03KT 10SM FEW013 SCT025 BKN050 21/20 A2988 RMK A01
Observed
Apr-26 @ 13:55 UTC
Wind
  • Variable at 3 KTS
Visibility
10 SM
Flight Rules
VFR
Cloud Levels
  • Few at 1,300' AGL
  • Scattered at 2,500' AGL
  • Broken at 5,000' AGL
Temperature
21°C / 70°F
Dewpoint
20°C / 68°F
Humidity
94%
Altimeter
29.88" Hg
Pressure
1011.82 hPa
Previous

36 mins ago

K24J 261335Z AUTO VRB04KT 10SM SCT025 SCT029 OVC050 21/20 A2988 RMK A01
Observed
Apr-26 @ 13:35 UTC
Wind
  • Variable at 4 KTS
Visibility
10 SM
Flight Rules
VFR
Cloud Levels
  • Scattered at 2,500' AGL
  • Scattered at 2,900' AGL
  • Overcast at 5,000' AGL
Temperature
21°C / 70°F
Dewpoint
20°C / 68°F
Humidity
94%
Altimeter
29.88" Hg
Pressure
1011.82 hPa
Previous

56 mins ago

K24J 261315Z AUTO 17005G10KT 10SM SCT010 BKN026 OVC050 21/20 A2988 RMK A01
Observed
Apr-26 @ 13:15 UTC
Wind
  • 170° at 5 KTS
  • Gusting to 10 KTS
Visibility
10 SM
Flight Rules
MVFR
Cloud Levels
  • Scattered at 1,000' AGL
  • Broken at 2,600' AGL
  • Overcast at 5,000' AGL
Temperature
21°C / 70°F
Dewpoint
20°C / 68°F
Humidity
94%
Altimeter
29.88" Hg
Pressure
1011.82 hPa